createdAt,value
2018-03-29T00:00:00.909Z,6.87
2018-03-29T00:02:28.376Z,6.40
2018-03-29T00:04:56.589Z,6.53
2018-03-29T00:07:24.090Z,7.23
2018-03-29T00:09:51.654Z,6.47
2018-03-29T00:12:20.618Z,7.00
2018-03-29T00:14:48.070Z,6.63
2018-03-29T00:17:15.537Z,7.00
2018-03-29T00:19:42.999Z,6.90
2018-03-29T00:22:10.487Z,7.20
2018-03-29T00:24:38.727Z,8.33
2018-03-29T00:27:06.192Z,7.20
2018-03-29T00:29:33.654Z,9.03
2018-03-29T00:32:01.118Z,8.03
2018-03-29T00:34:28.574Z,9.10
2018-03-29T00:36:56.032Z,9.60
2018-03-29T00:39:23.494Z,8.60
2018-03-29T00:41:50.946Z,9.17
2018-03-29T00:44:18.407Z,9.37
2018-03-29T00:46:45.886Z,9.57
2018-03-29T00:49:14.914Z,9.27
2018-03-29T00:51:42.384Z,10.47
2018-03-29T00:54:09.852Z,9.90
2018-03-29T00:56:37.310Z,11.10
2018-03-29T00:59:04.776Z,11.43
2018-03-29T01:01:32.245Z,10.30
2018-03-29T01:04:01.079Z,10.77
2018-03-29T01:06:28.542Z,11.30
2018-03-29T01:08:56.027Z,11.93
2018-03-29T01:11:23.491Z,14.27
2018-03-29T01:13:50.952Z,14.77
2018-03-29T01:16:18.431Z,15.87
2018-03-29T01:18:46.655Z,16.93
2018-03-29T01:21:14.129Z,14.70
2018-03-29T01:23:41.598Z,16.40
2018-03-29T01:26:09.057Z,16.77
2018-03-29T01:28:36.519Z,17.77
2018-03-29T01:31:04.767Z,17.33
2018-03-29T01:33:32.234Z,15.93
2018-03-29T01:35:59.701Z,16.70
2018-03-29T01:38:27.263Z,16.00
2018-03-29T01:40:54.724Z,16.30
2018-03-29T01:43:22.176Z,16.80
2018-03-29T01:45:49.645Z,17.73
2018-03-29T01:48:17.881Z,16.50
2018-03-29T01:50:45.358Z,17.07
2018-03-29T01:53:14.337Z,17.40
2018-03-29T01:55:41.804Z,16.53
2018-03-29T01:58:10.806Z,17.90
2018-03-29T02:00:39.045Z,18.30
2018-03-29T02:03:06.500Z,18.80
2018-03-29T02:05:33.958Z,18.80
2018-03-29T02:08:01.431Z,18.07
2018-03-29T02:10:28.907Z,18.43
2018-03-29T02:12:56.367Z,18.13
2018-03-29T02:15:24.605Z,18.70
2018-03-29T02:17:52.081Z,16.93
2018-03-29T02:20:19.538Z,16.77
2018-03-29T02:22:47.007Z,17.90
2018-03-29T02:25:14.507Z,16.17
2018-03-29T02:27:42.663Z,16.60
2018-03-29T02:30:10.927Z,16.33
2018-03-29T02:32:39.154Z,16.30
2018-03-29T02:35:06.623Z,18.07
2018-03-29T02:37:34.094Z,16.77
2018-03-29T02:40:02.371Z,17.80
2018-03-29T02:42:30.651Z,17.93
2018-03-29T02:44:58.122Z,17.27
2018-03-29T02:47:26.340Z,15.57
2018-03-29T02:49:53.791Z,16.37
2018-03-29T02:52:21.292Z,16.10
2018-03-29T02:54:48.707Z,17.60
2018-03-29T02:57:16.167Z,18.10
2018-03-29T02:59:43.639Z,19.30
2018-03-29T03:02:11.101Z,16.60
2018-03-29T03:04:38.561Z,18.57
2018-03-29T03:07:06.032Z,17.67
2018-03-29T03:09:33.494Z,15.97
2018-03-29T03:12:00.955Z,16.77
2018-03-29T03:14:28.417Z,18.33
2018-03-29T03:16:56.635Z,20.27
2018-03-29T03:19:24.086Z,18.10
2018-03-29T03:21:51.548Z,19.90
2018-03-29T03:24:19.006Z,18.90
2018-03-29T03:26:46.458Z,18.13
2018-03-29T03:29:13.927Z,17.97
2018-03-29T03:31:42.146Z,20.30
2018-03-29T03:34:10.370Z,18.93
2018-03-29T03:36:37.849Z,19.97
2018-03-29T03:39:05.313Z,20.10
2018-03-29T03:41:32.777Z,20.37
2018-03-29T03:44:00.246Z,20.80
2018-03-29T03:46:28.510Z,19.77
2018-03-29T03:48:56.731Z,20.83
2018-03-29T03:51:24.198Z,21.57
2018-03-29T03:53:51.658Z,21.47
2018-03-29T03:56:20.059Z,22.30
2018-03-29T03:58:47.523Z,21.10
2018-03-29T04:01:14.988Z,23.17
2018-03-29T04:03:42.441Z,18.97
2018-03-29T04:06:09.914Z,24.70
2018-03-29T04:08:37.365Z,19.70
2018-03-29T04:11:04.809Z,23.60
2018-03-29T04:13:33.046Z,22.50
2018-03-29T04:16:00.510Z,24.13
2018-03-29T04:18:28.106Z,26.37
2018-03-29T04:20:55.576Z,26.10
2018-03-29T04:23:23.030Z,25.97
2018-03-29T04:25:51.089Z,22.73
2018-03-29T04:28:18.514Z,23.70
2018-03-29T04:30:46.030Z,25.87
2018-03-29T04:33:14.250Z,25.87
2018-03-29T04:35:42.513Z,27.80
2018-03-29T04:38:09.970Z,27.17
2018-03-29T04:40:37.430Z,26.47
2018-03-29T04:43:04.899Z,23.17
2018-03-29T04:45:32.350Z,25.33
2018-03-29T04:47:59.806Z,25.40
2018-03-29T04:50:27.274Z,25.10
2018-03-29T04:52:54.750Z,24.10
2018-03-29T04:55:23.011Z,25.30
2018-03-29T04:57:50.513Z,23.43
2018-03-29T05:00:18.753Z,24.73
2018-03-29T05:02:46.212Z,22.47
2018-03-29T05:05:13.690Z,27.57
2018-03-29T05:07:41.918Z,27.43
2018-03-29T05:10:09.392Z,29.17
2018-03-29T05:12:36.858Z,28.27
2018-03-29T05:15:04.318Z,29.27
2018-03-29T05:17:31.792Z,27.10
2018-03-29T05:20:00.018Z,27.80
2018-03-29T05:22:27.493Z,27.03
2018-03-29T05:24:54.998Z,25.83
2018-03-29T05:27:26.434Z,29.20
2018-03-29T05:29:54.683Z,27.30
2018-03-29T05:32:22.146Z,26.90
2018-03-29T05:34:49.641Z,31.07
2018-03-29T05:37:17.103Z,25.27
2018-03-29T05:39:44.561Z,24.50
2018-03-29T05:42:12.015Z,34.63
2018-03-29T05:44:39.484Z,29.80
2018-03-29T05:47:06.943Z,28.57
2018-03-29T05:49:34.411Z,30.43
2018-03-29T05:52:02.897Z,30.83
2018-03-29T05:54:30.345Z,28.67
2018-03-29T05:56:58.666Z,27.57
2018-03-29T05:59:26.136Z,27.20
2018-03-29T06:01:54.358Z,29.03
2018-03-29T06:04:21.809Z,34.20
2018-03-29T06:06:49.273Z,35.77
2018-03-29T06:09:16.762Z,29.30
2018-03-29T06:11:44.221Z,26.87
2018-03-29T06:14:11.681Z,28.00
2018-03-29T06:16:44.777Z,31.23
2018-03-29T06:19:13.009Z,28.07
2018-03-29T06:21:40.504Z,32.50
2018-03-29T06:24:07.958Z,30.00
2018-03-29T06:26:35.422Z,29.40
2018-03-29T06:29:03.642Z,34.17
2018-03-29T06:31:31.862Z,30.40
2018-03-29T06:33:59.329Z,29.80
2018-03-29T06:36:27.550Z,32.20
2018-03-29T06:38:55.017Z,33.97
2018-03-29T06:41:22.493Z,36.30
2018-03-29T06:43:49.942Z,31.67
2018-03-29T06:46:17.393Z,36.40
2018-03-29T06:48:44.891Z,32.00
2018-03-29T06:51:13.110Z,34.80
2018-03-29T06:53:40.591Z,34.90
2018-03-29T06:56:08.054Z,31.40
2018-03-29T06:58:35.529Z,33.90
2018-03-29T07:01:03.038Z,31.03
2018-03-29T07:03:30.462Z,30.23
2018-03-29T07:05:57.934Z,31.30
2018-03-29T07:08:25.384Z,32.40
2018-03-29T07:10:52.868Z,30.23
2018-03-29T07:13:20.318Z,32.00
2018-03-29T07:15:47.779Z,31.53
2018-03-29T07:18:15.246Z,31.30
2018-03-29T07:20:42.709Z,29.50
2018-03-29T07:23:10.512Z,30.53
2018-03-29T07:25:38.753Z,30.60
2018-03-29T07:28:06.205Z,32.20
2018-03-29T07:30:33.687Z,32.90
2018-03-29T07:33:01.133Z,32.50
2018-03-29T07:35:28.594Z,33.40
2018-03-29T07:37:56.816Z,32.03
2018-03-29T07:40:24.292Z,34.33
2018-03-29T07:42:51.742Z,31.70
2018-03-29T07:45:19.206Z,32.50
2018-03-29T07:47:46.681Z,32.10
2018-03-29T07:50:14.133Z,28.20
2018-03-29T07:52:41.705Z,30.30
2018-03-29T07:55:10.685Z,31.33
2018-03-29T07:57:38.163Z,30.67
2018-03-29T08:00:05.619Z,27.10
2018-03-29T08:02:33.097Z,28.00
2018-03-29T08:05:01.322Z,27.57
2018-03-29T08:07:28.773Z,29.67
2018-03-29T08:09:57.102Z,30.03
2018-03-29T08:12:25.325Z,32.00
2018-03-29T08:14:52.786Z,29.50
2018-03-29T08:17:20.241Z,32.23
2018-03-29T08:19:47.693Z,31.97
2018-03-29T08:22:15.159Z,34.27
2018-03-29T08:24:42.637Z,33.30
2018-03-29T08:27:10.099Z,33.33
2018-03-29T08:29:39.271Z,29.47
2018-03-29T08:32:06.729Z,32.20
2018-03-29T08:34:34.193Z,31.53
2018-03-29T08:37:01.667Z,32.60
2018-03-29T08:39:29.137Z,32.93
2018-03-29T08:41:57.353Z,35.47
2018-03-29T08:44:24.809Z,30.23
2018-03-29T08:46:52.270Z,28.03
2018-03-29T08:49:19.735Z,29.40
2018-03-29T08:51:47.198Z,30.30
2018-03-29T08:54:14.670Z,29.17
2018-03-29T08:56:42.125Z,27.87
2018-03-29T08:59:09.583Z,26.40
2018-03-29T09:01:37.056Z,26.87
2018-03-29T09:04:04.514Z,29.43
2018-03-29T09:06:32.802Z,30.73
2018-03-29T09:09:01.039Z,30.60
2018-03-29T09:11:28.497Z,29.77
2018-03-29T09:13:55.956Z,30.50
2018-03-29T09:16:23.440Z,28.77
2018-03-29T09:18:51.796Z,28.40
2018-03-29T09:21:19.246Z,30.23
2018-03-29T09:23:46.718Z,24.90
2018-03-29T09:26:14.172Z,29.13
2018-03-29T09:28:41.626Z,25.30
2018-03-29T09:31:09.099Z,26.93
2018-03-29T09:33:36.554Z,22.03
2018-03-29T09:36:04.011Z,23.27
2018-03-29T09:38:32.374Z,20.03
2018-03-29T09:40:59.835Z,21.67
2018-03-29T09:43:27.286Z,17.33
2018-03-29T09:45:54.774Z,20.20
2018-03-29T09:48:23.005Z,17.67
2018-03-29T09:50:51.054Z,17.83
2018-03-29T09:53:18.528Z,17.33
2018-03-29T09:55:45.990Z,18.83
2018-03-29T09:58:13.449Z,21.97
2018-03-29T10:00:40.921Z,17.40
2018-03-29T10:03:09.163Z,17.43
2018-03-29T10:05:37.454Z,18.00
2018-03-29T10:08:04.919Z,19.47
2018-03-29T10:10:32.382Z,20.13
2018-03-29T10:12:59.838Z,19.10
2018-03-29T10:15:27.306Z,20.83
2018-03-29T10:17:54.766Z,22.27
2018-03-29T10:20:22.226Z,18.83
2018-03-29T10:22:50.486Z,17.00
2018-03-29T10:25:17.938Z,16.10
2018-03-29T10:27:45.397Z,16.90
2018-03-29T10:30:12.875Z,16.77
2018-03-29T10:32:40.363Z,14.40
2018-03-29T10:35:08.550Z,14.23
2018-03-29T10:37:36.009Z,14.70
2018-03-29T10:40:03.478Z,13.80
2018-03-29T10:42:31.004Z,13.37
2018-03-29T10:44:58.475Z,12.03
2018-03-29T10:47:25.929Z,14.10
2018-03-29T10:49:53.394Z,14.87
2018-03-29T10:52:20.882Z,13.77
2018-03-29T10:54:48.341Z,14.17
2018-03-29T10:57:17.312Z,13.30
2018-03-29T10:59:44.785Z,14.43
2018-03-29T11:02:12.228Z,12.60
2018-03-29T11:04:39.688Z,10.53
2018-03-29T11:07:07.153Z,11.30
2018-03-29T11:09:34.627Z,11.63
2018-03-29T11:12:02.091Z,9.43
2018-03-29T11:14:29.566Z,10.23
2018-03-29T11:16:57.789Z,8.53
2018-03-29T11:19:25.244Z,6.37
2018-03-29T11:21:52.704Z,5.57
2018-03-29T11:24:20.149Z,6.03
2018-03-29T11:26:47.596Z,7.53
2018-03-29T11:29:15.065Z,6.77
2018-03-29T11:31:42.509Z,7.33
2018-03-29T11:34:09.967Z,6.63
2018-03-29T11:36:37.429Z,8.07
2018-03-29T11:39:04.882Z,7.90
2018-03-29T11:41:32.331Z,7.70
2018-03-29T11:43:59.815Z,7.83
2018-03-29T11:46:27.262Z,6.53
2018-03-29T11:48:54.733Z,7.50
2018-03-29T11:51:22.203Z,7.23
2018-03-29T11:53:49.670Z,6.70
2018-03-29T11:56:17.124Z,7.00
2018-03-29T11:58:44.598Z,7.97
2018-03-29T12:01:12.830Z,7.10
2018-03-29T12:03:40.288Z,6.60
2018-03-29T12:06:07.753Z,7.00
2018-03-29T12:08:35.209Z,5.97
2018-03-29T12:11:02.716Z,6.00
2018-03-29T12:13:30.206Z,4.93
2018-03-29T12:15:57.667Z,4.33
2018-03-29T12:18:25.127Z,4.50
2018-03-29T12:20:52.593Z,4.87
2018-03-29T12:23:20.079Z,5.13
2018-03-29T12:25:48.298Z,3.87
2018-03-29T12:28:15.758Z,2.10
2018-03-29T12:30:43.201Z,1.50
2018-03-29T12:33:10.658Z,1.43
2018-03-29T12:35:38.119Z,1.50
2018-03-29T12:38:05.569Z,1.50
2018-03-29T12:40:33.012Z,1.50
2018-03-29T12:43:00.999Z,1.10
2018-03-29T12:45:28.466Z,1.70
2018-03-29T12:47:55.912Z,2.50
2018-03-29T12:50:23.471Z,1.40
2018-03-29T12:52:50.821Z,1.30
2018-03-29T12:55:30.092Z,2.47
2018-03-29T12:58:09.442Z,2.10
2018-03-29T13:00:36.915Z,1.97
2018-03-29T13:03:05.126Z,2.87
2018-03-29T13:05:32.581Z,2.70
2018-03-29T13:08:00.048Z,2.13
2018-03-29T13:10:27.501Z,1.77
2018-03-29T13:12:54.958Z,1.97
2018-03-29T13:15:23.185Z,1.90
2018-03-29T13:17:51.405Z,2.50
2018-03-29T13:20:18.861Z,2.70
2018-03-29T13:22:46.334Z,2.60
2018-03-29T13:25:13.793Z,3.63
2018-03-29T13:27:41.250Z,3.50
2018-03-29T13:30:08.735Z,4.17
2018-03-29T13:32:36.214Z,5.33
2018-03-29T13:35:04.430Z,5.17
2018-03-29T13:37:31.913Z,5.30
2018-03-29T13:39:59.397Z,5.43
2018-03-29T13:42:27.623Z,4.40
2018-03-29T13:44:55.103Z,5.73
2018-03-29T13:47:22.570Z,6.60
2018-03-29T13:49:50.057Z,5.90
2018-03-29T13:52:17.525Z,5.97
2018-03-29T13:54:44.992Z,6.13
2018-03-29T13:57:13.216Z,5.70
2018-03-29T13:59:40.682Z,5.57
2018-03-29T14:02:08.903Z,3.57
2018-03-29T14:04:36.367Z,3.50
2018-03-29T14:07:03.914Z,3.57
2018-03-29T14:09:32.307Z,3.57
2018-03-29T14:11:59.753Z,3.67
2018-03-29T14:14:27.237Z,2.60
2018-03-29T14:16:54.714Z,3.20
2018-03-29T14:19:22.175Z,2.57
2018-03-29T14:21:49.626Z,2.10
2018-03-29T14:24:17.102Z,2.40
2018-03-29T14:26:45.329Z,2.03
2018-03-29T14:29:12.807Z,1.90
2018-03-29T14:31:40.288Z,2.80
2018-03-29T14:34:08.497Z,1.90
2018-03-29T14:36:35.987Z,1.70
2018-03-29T14:39:04.352Z,1.57
2018-03-29T14:41:31.888Z,1.90
2018-03-29T14:43:59.282Z,2.67
2018-03-29T14:46:26.730Z,1.30
2018-03-29T14:48:54.197Z,1.33
2018-03-29T14:51:21.692Z,1.57
2018-03-29T14:53:49.153Z,1.60
2018-03-29T14:56:16.621Z,1.80
2018-03-29T14:58:44.086Z,1.27
2018-03-29T15:01:11.563Z,1.23
2018-03-29T15:03:39.015Z,1.47
2018-03-29T15:06:06.467Z,1.33
2018-03-29T15:08:33.979Z,1.00
2018-03-29T15:11:02.229Z,1.17
2018-03-29T15:13:29.682Z,1.37
2018-03-29T15:15:57.153Z,1.57
2018-03-29T15:18:25.370Z,2.00
2018-03-29T15:20:52.835Z,1.60
2018-03-29T15:23:20.310Z,1.60
2018-03-29T15:25:47.762Z,1.70
2018-03-29T15:28:15.238Z,1.60
2018-03-29T15:30:42.712Z,1.47
2018-03-29T15:33:10.926Z,1.47
2018-03-29T15:35:38.658Z,1.47
2018-03-29T15:38:06.128Z,1.50
2018-03-29T15:40:33.675Z,1.73
2018-03-29T15:43:01.886Z,2.00
2018-03-29T15:45:29.337Z,1.90
2018-03-29T15:47:57.595Z,1.50
2018-03-29T15:50:25.069Z,2.13
2018-03-29T15:52:52.559Z,1.73
2018-03-29T15:55:20.031Z,2.07
2018-03-29T15:57:47.506Z,1.90
2018-03-29T16:00:15.733Z,1.80
2018-03-29T16:02:43.275Z,1.97
2018-03-29T16:05:10.734Z,2.10
2018-03-29T16:07:38.221Z,1.57
2018-03-29T16:10:05.685Z,2.10
2018-03-29T16:12:33.464Z,2.63
2018-03-29T16:15:00.903Z,2.50
2018-03-29T16:17:28.371Z,1.90
2018-03-29T16:19:55.838Z,2.60
2018-03-29T16:22:24.052Z,2.13
2018-03-29T16:24:51.527Z,1.93
2018-03-29T16:27:18.999Z,2.47
2018-03-29T16:29:46.452Z,3.10
2018-03-29T16:32:13.906Z,2.83
2018-03-29T16:34:41.396Z,3.20
2018-03-29T16:37:09.625Z,2.80
2018-03-29T16:39:37.133Z,2.50
2018-03-29T16:42:05.418Z,5.77
2018-03-29T16:44:33.633Z,3.23
2018-03-29T16:47:01.098Z,2.43
2018-03-29T16:49:28.586Z,2.60
2018-03-29T16:51:56.048Z,3.00
2018-03-29T16:54:23.505Z,2.80
2018-03-29T16:56:51.737Z,2.53
2018-03-29T16:59:19.223Z,2.33
2018-03-29T17:01:46.696Z,2.80
2018-03-29T17:04:14.913Z,2.83
2018-03-29T17:06:42.378Z,2.50
2018-03-29T17:09:09.849Z,2.97
2018-03-29T17:11:37.309Z,2.57
2018-03-29T17:14:04.790Z,2.97
2018-03-29T17:16:32.258Z,3.17
2018-03-29T17:19:00.491Z,3.10
2018-03-29T17:21:27.966Z,2.73
2018-03-29T17:23:55.450Z,3.30
2018-03-29T17:26:23.673Z,2.60
2018-03-29T17:28:51.120Z,3.63
2018-03-29T17:31:18.632Z,3.03
2018-03-29T17:33:46.879Z,3.60
2018-03-29T17:36:14.355Z,3.23
2018-03-29T17:38:41.844Z,2.70
2018-03-29T17:41:09.298Z,3.60
2018-03-29T17:43:36.770Z,3.80
2018-03-29T17:46:04.229Z,3.00
2018-03-29T17:48:31.688Z,3.40
2018-03-29T17:50:59.172Z,3.33
2018-03-29T17:53:26.634Z,4.10
2018-03-29T17:55:54.111Z,3.57
2018-03-29T17:58:21.598Z,3.57
2018-03-29T18:00:49.074Z,4.13
2018-03-29T18:03:16.579Z,3.60
2018-03-29T18:05:44.822Z,4.00
2018-03-29T18:08:12.270Z,4.77
2018-03-29T18:10:39.746Z,3.63
2018-03-29T18:13:07.206Z,4.07
2018-03-29T18:15:34.697Z,3.40
2018-03-29T18:18:02.953Z,3.47
2018-03-29T18:20:30.414Z,4.17
2018-03-29T18:22:57.877Z,3.50
2018-03-29T18:25:25.319Z,3.90
2018-03-29T18:27:52.789Z,3.53
2018-03-29T18:30:20.254Z,4.30
2018-03-29T18:32:48.507Z,4.17
2018-03-29T18:35:15.978Z,4.50
2018-03-29T18:37:44.449Z,5.20
2018-03-29T18:40:11.934Z,5.80
2018-03-29T18:42:40.146Z,4.40
2018-03-29T18:45:07.634Z,4.30
2018-03-29T18:47:35.079Z,6.30
2018-03-29T18:50:02.550Z,4.83
2018-03-29T18:52:30.046Z,4.93
2018-03-29T18:54:58.261Z,4.97
2018-03-29T18:57:25.722Z,4.00
2018-03-29T18:59:53.194Z,4.90
2018-03-29T19:02:20.657Z,5.47
2018-03-29T19:04:48.110Z,4.97
2018-03-29T19:07:15.571Z,4.47
2018-03-29T19:09:43.044Z,5.50
2018-03-29T19:12:11.280Z,5.10
2018-03-29T19:14:38.734Z,5.60
2018-03-29T19:17:06.194Z,5.03
2018-03-29T19:19:33.649Z,5.90
2018-03-29T19:22:01.122Z,5.57
2018-03-29T19:24:28.601Z,5.97
2018-03-29T19:26:56.815Z,6.30
2018-03-29T19:29:25.070Z,6.67
2018-03-29T19:31:52.518Z,7.20
2018-03-29T19:34:20.734Z,8.07
2018-03-29T19:36:48.264Z,7.53
2018-03-29T19:39:15.658Z,7.97
2018-03-29T19:41:43.130Z,8.33
2018-03-29T19:44:10.583Z,8.70
2018-03-29T19:46:38.037Z,8.60
2018-03-29T19:49:05.509Z,7.80
2018-03-29T19:51:33.735Z,9.33
2018-03-29T19:54:01.214Z,9.30
2018-03-29T19:56:28.676Z,9.00
2018-03-29T19:58:56.134Z,9.70
2018-03-29T20:01:23.635Z,9.83
2018-03-29T20:03:51.859Z,10.17
2018-03-29T20:06:19.334Z,10.10
2018-03-29T20:08:46.802Z,10.30
2018-03-29T20:11:14.270Z,10.80
2018-03-29T20:13:42.499Z,10.83
2018-03-29T20:16:09.953Z,11.40
2018-03-29T20:18:37.422Z,11.00
2018-03-29T20:21:04.883Z,10.10
2018-03-29T20:23:32.347Z,11.87
2018-03-29T20:25:59.822Z,13.17
2018-03-29T20:28:28.065Z,11.73
2018-03-29T20:30:55.537Z,11.10
2018-03-29T20:33:23.003Z,11.97
2018-03-29T20:35:50.458Z,11.40
2018-03-29T20:38:17.946Z,12.60
2018-03-29T20:40:45.452Z,11.40
2018-03-29T20:43:12.921Z,12.13
2018-03-29T20:45:40.377Z,11.20
2018-03-29T20:48:07.862Z,13.23
2018-03-29T20:50:36.085Z,11.13
2018-03-29T20:53:03.622Z,12.50
2018-03-29T20:55:31.085Z,13.30
2018-03-29T20:57:58.546Z,12.73
2018-03-29T21:00:25.997Z,11.60
2018-03-29T21:02:53.490Z,11.07
2018-03-29T21:05:20.930Z,11.50
2018-03-29T21:07:48.389Z,10.73
2018-03-29T21:10:15.846Z,9.83
2018-03-29T21:12:43.315Z,10.23
2018-03-29T21:15:10.777Z,10.17
2018-03-29T21:17:38.242Z,11.20
2018-03-29T21:20:05.711Z,11.30
2018-03-29T21:22:33.157Z,10.43
2018-03-29T21:25:00.625Z,10.63
2018-03-29T21:27:28.234Z,10.93
2018-03-29T21:29:55.685Z,8.80
2018-03-29T21:32:23.512Z,9.10
2018-03-29T21:34:51.725Z,9.10
2018-03-29T21:37:19.202Z,9.17
2018-03-29T21:39:46.658Z,7.20
2018-03-29T21:42:14.865Z,7.43
2018-03-29T21:44:43.119Z,5.47
2018-03-29T21:47:10.598Z,6.07
2018-03-29T21:49:38.837Z,3.90
2018-03-29T21:52:06.330Z,5.37
2018-03-29T21:54:33.813Z,4.97
2018-03-29T21:57:02.147Z,4.40
2018-03-29T21:59:30.385Z,5.00
2018-03-29T22:01:57.880Z,4.40
2018-03-29T22:04:26.078Z,5.40
2018-03-29T22:06:54.312Z,3.37
2018-03-29T22:09:21.754Z,4.60
2018-03-29T22:11:49.232Z,4.00
2018-03-29T22:14:16.677Z,4.07
2018-03-29T22:16:44.138Z,3.77
2018-03-29T22:19:11.609Z,4.60
2018-03-29T22:21:39.070Z,4.93
2018-03-29T22:24:08.042Z,3.93
2018-03-29T22:26:36.087Z,4.73
2018-03-29T22:29:04.350Z,4.73
2018-03-29T22:31:31.821Z,4.10
2018-03-29T22:33:59.294Z,4.97
2018-03-29T22:36:26.762Z,4.87
2018-03-29T22:38:54.213Z,5.40
2018-03-29T22:41:21.677Z,5.17
2018-03-29T22:43:49.145Z,5.33
2018-03-29T22:46:16.598Z,4.83
2018-03-29T22:48:44.381Z,6.10
2018-03-29T22:51:11.830Z,4.60
2018-03-29T22:53:39.283Z,4.80
2018-03-29T22:56:06.809Z,4.73
2018-03-29T22:58:34.258Z,4.80
2018-03-29T23:01:01.716Z,5.77
2018-03-29T23:03:29.176Z,5.17
2018-03-29T23:05:56.669Z,4.07
2018-03-29T23:08:24.130Z,4.60
2018-03-29T23:10:51.592Z,4.57
2018-03-29T23:13:19.046Z,5.00
2018-03-29T23:15:46.493Z,4.90
2018-03-29T23:18:14.054Z,5.40
2018-03-29T23:20:41.532Z,5.13
2018-03-29T23:23:09.751Z,6.60
2018-03-29T23:25:37.212Z,7.00
2018-03-29T23:28:04.685Z,7.70
2018-03-29T23:30:32.146Z,8.40
2018-03-29T23:32:59.589Z,8.37
2018-03-29T23:35:27.050Z,8.83
2018-03-29T23:37:54.506Z,8.10
2018-03-29T23:40:21.962Z,7.63
2018-03-29T23:42:49.434Z,8.80
2018-03-29T23:45:16.891Z,9.10
2018-03-29T23:47:44.347Z,9.67
2018-03-29T23:50:11.814Z,9.60
2018-03-29T23:52:39.268Z,8.97
2018-03-29T23:55:06.735Z,10.30
2018-03-29T23:57:34.236Z,9.37
